Time;durP1;ratioP1;P1;durP2;ratioP2;P2;SDS_P1;SDS_P2;PMS_P1;PMS_P2;Temp;Humidity;BMP_temperature;BMP_pressure;BME280_temperature;BME280_humidity;BME280_pressure;Samples;Min_cycle;Max_cycle;Signal;HPM_P1;HPM_P2
2023/10/05 00:04:26;;;;;;;1.25;0.20;;;12.40;1.00;;;;;;5044302;28;20049;-77
2023/10/05 00:06:53;;;;;;;1.17;0.52;;;12.40;1.00;;;;;;5056298;28;20064;-77
2023/10/05 00:09:20;;;;;;;0.05;0.05;;;12.40;1.00;;;;;;5057161;28;20049;-77
2023/10/05 00:11:46;;;;;;;0.20;0.20;;;12.40;1.00;;;;;;5056742;28;20041;-77
2023/10/05 00:14:12;;;;;;;0.00;0.00;;;12.40;2.10;;;;;;5054706;28;20048;-76
2023/10/05 00:16:39;;;;;;;0.05;0.05;;;12.50;40.70;;;;;;5054618;28;20094;-77
2023/10/05 00:19:12;;;;;;;0.00;0.00;;;12.50;19.90;;;;;;5055784;28;20049;-77
2023/10/05 00:21:50;;;;;;;0.28;0.28;;;12.50;18.60;;;;;;5056668;28;20048;-78
2023/10/05 00:24:20;;;;;;;0.00;0.00;;;12.60;38.90;;;;;;5058404;28;20048;-78
2023/10/05 00:26:46;;;;;;;1.90;0.82;;;12.60;21.80;;;;;;5057458;28;20040;-78
2023/10/05 00:29:18;;;;;;;0.10;0.10;;;12.70;1.00;;;;;;5039664;28;20049;-78
2023/10/05 00:31:47;;;;;;;0.45;0.20;;;12.70;1.00;;;;;;5041196;28;20048;-77
2023/10/05 00:34:24;;;;;;;0.00;0.00;;;12.80;1.00;;;;;;5041065;28;20052;-78
2023/10/05 00:36:50;;;;;;;9.02;1.08;;;12.80;1.00;;;;;;5041458;28;20045;-78
2023/10/05 00:39:21;;;;;;;0.00;0.00;;;12.80;1.00;;;;;;5040992;28;20403;-78
2023/10/05 00:42:07;;;;;;;0.35;0.20;;;12.70;1.00;;;;;;5040285;28;20374;-79
2023/10/05 00:44:35;;;;;;;0.00;0.00;;;12.70;14.00;;;;;;5052903;28;20053;-78
2023/10/05 00:47:05;;;;;;;1.00;0.90;;;12.70;47.50;;;;;;5041859;28;20049;-78
2023/10/05 00:49:42;;;;;;;1.45;0.47;;;12.70;53.20;;;;;;5039461;28;20037;-79
2023/10/05 00:52:14;;;;;;;0.00;0.00;;;12.70;77.20;;;;;;5041683;28;20064;-79
2023/10/05 00:54:51;;;;;;;0.00;0.00;;;12.90;92.30;;;;;;5039596;28;20072;-78
2023/10/05 00:57:22;;;;;;;0.22;0.17;;;12.80;93.40;;;;;;5040959;28;20049;-79
2023/10/05 01:00:26;;;;;;;0.25;0.25;;;12.80;66.00;;;;;;5040804;28;20094;-79
2023/10/05 01:03:10;;;;;;;0.00;0.00;;;12.90;79.60;;;;;;5037993;28;20059;-78
2023/10/05 01:05:48;;;;;;;0.08;0.08;;;12.90;82.50;;;;;;5041130;28;20064;-78
2023/10/05 01:08:17;;;;;;;0.05;0.05;;;12.80;94.40;;;;;;5057876;28;20053;-79
2023/10/05 01:10:45;;;;;;;3.13;0.55;;;12.80;99.90;;;;;;5041708;28;20500;-77
2023/10/05 01:13:32;;;;;;;4.95;1.98;;;12.90;99.90;;;;;;5042646;28;20057;-77
2023/10/05 01:15:59;;;;;;;0.35;0.35;;;12.90;99.90;;;;;;5048814;28;20051;-78
2023/10/05 01:18:25;;;;;;;0.17;0.10;;;12.90;99.90;;;;;;5059253;28;20037;-78
2023/10/05 01:20:51;;;;;;;0.00;0.00;;;12.90;99.90;;;;;;5058651;28;20048;-78
2023/10/05 01:23:18;;;;;;;0.82;0.25;;;12.90;99.90;;;;;;5057609;28;20037;-79
2023/10/05 01:25:43;;;;;;;0.47;0.45;;;13.00;99.90;;;;;;5057574;28;20053;-77
2023/10/05 01:28:09;;;;;;;0.43;0.15;;;12.90;99.90;;;;;;5058379;28;20477;-78
2023/10/05 01:30:38;;;;;;;0.88;0.20;;;12.90;99.90;;;;;;5056278;28;20065;-78
2023/10/05 01:33:04;;;;;;;0.17;0.17;;;12.90;99.90;;;;;;5058333;28;20072;-78
2023/10/05 01:35:29;;;;;;;0.65;0.20;;;12.80;99.90;;;;;;5056630;28;20490;-78
2023/10/05 01:37:59;;;;;;;0.35;0.00;;;12.80;99.90;;;;;;5051473;28;20053;-78
2023/10/05 01:40:29;;;;;;;0.25;0.25;;;12.80;99.90;;;;;;5054686;28;20375;-78
2023/10/05 01:42:56;;;;;;;0.00;0.00;;;12.70;99.90;;;;;;5050841;28;20119;-79
2023/10/05 01:45:45;;;;;;;2.50;0.22;;;12.70;99.90;;;;;;5057834;28;20037;-78
2023/10/05 01:48:12;;;;;;;0.00;0.00;;;12.60;99.90;;;;;;5049744;28;20131;-79
2023/10/05 01:50:39;;;;;;;0.00;0.00;;;12.70;99.90;;;;;;5056571;28;20048;-78
2023/10/05 01:53:08;;;;;;;0.25;0.17;;;12.60;99.90;;;;;;5055572;28;20068;-79
2023/10/05 01:55:35;;;;;;;2.17;1.77;;;12.60;99.90;;;;;;5051792;28;20037;-79
2023/10/05 01:58:06;;;;;;;0.00;0.00;;;12.60;1.00;;;;;;5058867;28;20049;-79
2023/10/05 02:00:37;;;;;;;0.05;0.05;;;12.60;1.00;;;;;;5055165;28;20500;-79
2023/10/05 02:03:11;;;;;;;0.00;0.00;;;12.60;1.00;;;;;;5047268;28;20036;-78
2023/10/05 02:05:37;;;;;;;0.10;0.10;;;12.60;1.00;;;;;;5058410;28;20521;-76
2023/10/05 02:08:03;;;;;;;1.35;0.20;;;12.50;1.00;;;;;;5054380;28;20037;-76
2023/10/05 02:10:32;;;;;;;0.20;0.20;;;12.50;15.70;;;;;;5054252;28;20501;-77
2023/10/05 02:13:01;;;;;;;0.20;0.20;;;12.50;1.10;;;;;;5052938;28;20414;-76
2023/10/05 02:15:30;;;;;;;0.52;0.20;;;12.50;29.00;;;;;;5054461;28;20067;-77
2023/10/05 02:17:59;;;;;;;2.30;0.52;;;12.70;39.40;;;;;;5054625;28;20052;-76
2023/10/05 02:22:57;;;;;;;0.00;0.00;;;12.60;90.70;;;;;;5044795;28;20045;-77
2023/10/05 02:25:25;;;;;;;0.52;0.52;;;12.60;86.40;;;;;;5054324;28;20041;-77
2023/10/05 02:27:52;;;;;;;1.38;0.65;;;12.70;1.00;;;;;;5054876;28;20056;-77
2023/10/05 02:30:26;;;;;;;0.00;0.00;;;12.70;5.60;;;;;;5052518;28;20033;-76
2023/10/05 02:32:52;;;;;;;0.22;0.20;;;12.70;19.50;;;;;;5053140;28;20524;-77
2023/10/05 02:35:32;;;;;;;0.47;0.38;;;12.70;1.00;;;;;;5053088;28;20041;-78
2023/10/05 02:37:58;;;;;;;0.10;0.10;;;12.80;17.40;;;;;;5053343;28;20510;-77
2023/10/05 02:40:39;;;;;;;0.08;0.05;;;12.80;1.00;;;;;;5051498;28;20055;-77
2023/10/05 02:43:07;;;;;;;0.00;0.00;;;12.90;1.00;;;;;;5048578;28;20076;-76
2023/10/05 02:45:37;;;;;;;0.22;0.15;;;12.80;1.00;;;;;;5053067;28;20484;-77
2023/10/05 02:48:06;;;;;;;0.00;0.00;;;12.80;1.00;;;;;;5053909;28;20402;-77
2023/10/05 02:50:32;;;;;;;1.10;0.77;;;12.70;1.00;;;;;;5054689;28;20087;-78
2023/10/05 02:53:03;;;;;;;0.20;0.20;;;12.70;1.00;;;;;;5054075;28;20052;-76
2023/10/05 02:55:35;;;;;;;1.10;0.38;;;12.60;23.70;;;;;;5044117;28;20073;-77
2023/10/05 02:58:03;;;;;;;0.20;0.20;;;12.70;54.80;;;;;;5033837;28;20092;-76
2023/10/05 03:00:29;;;;;;;0.75;0.45;;;12.70;54.70;;;;;;5051551;28;20045;-76
2023/10/05 03:02:54;;;;;;;0.30;0.30;;;12.80;35.70;;;;;;5053302;28;20082;-76
2023/10/05 03:05:20;;;;;;;0.20;0.20;;;12.70;1.00;;;;;;5054632;28;20037;-76
2023/10/05 03:07:48;;;;;;;0.00;0.00;;;12.70;1.00;;;;;;5052626;28;20076;-77
2023/10/05 03:10:16;;;;;;;0.25;0.20;;;12.60;22.30;;;;;;5053717;28;20048;-77
2023/10/05 03:12:43;;;;;;;0.00;0.00;;;12.60;48.30;;;;;;5053693;28;20125;-77
2023/10/05 03:15:09;;;;;;;1.55;0.03;;;12.60;74.00;;;;;;5052618;28;20051;-76
2023/10/05 03:17:37;;;;;;;0.47;0.38;;;12.40;91.50;;;;;;5051796;28;20077;-78
2023/10/05 03:20:08;;;;;;;0.43;0.40;;;12.50;99.90;;;;;;5053947;28;20060;-77
2023/10/05 03:22:34;;;;;;;0.47;0.35;;;12.30;99.90;;;;;;5053961;28;20544;-77
2023/10/05 03:25:00;;;;;;;0.63;0.50;;;12.30;99.90;;;;;;5054200;28;20414;-77
2023/10/05 03:27:26;;;;;;;0.00;0.00;;;12.30;99.90;;;;;;5045892;28;20121;-77
2023/10/05 03:29:52;;;;;;;0.00;0.00;;;12.30;99.90;;;;;;5052867;28;20053;-77
2023/10/05 03:32:19;;;;;;;0.00;0.00;;;12.30;99.90;;;;;;5053729;28;20406;-77
2023/10/05 03:34:55;;;;;;;2.13;0.55;;;12.20;99.90;;;;;;5053976;28;20084;-77
2023/10/05 03:37:24;;;;;;;0.00;0.00;;;12.20;99.90;;;;;;5052745;28;20450;-77
2023/10/05 03:42:15;;;;;;;0.20;0.20;;;12.30;1.00;;;;;;5053117;28;20037;-77
2023/10/05 03:44:41;;;;;;;0.00;0.00;;;12.40;1.00;;;;;;5049056;28;20402;-77
2023/10/05 03:47:06;;;;;;;0.05;0.05;;;12.40;1.00;;;;;;5033540;28;20047;-78
2023/10/05 03:49:33;;;;;;;0.00;0.00;;;12.60;99.90;;;;;;5046627;28;20287;-77
2023/10/05 03:51:58;;;;;;;0.10;0.10;;;12.40;99.90;;;;;;5051933;28;20045;-78
2023/10/05 03:54:24;;;;;;;0.00;0.00;;;12.40;1.00;;;;;;5046087;28;20064;-77
2023/10/05 03:57:04;;;;;;;0.00;0.00;;;12.50;1.00;;;;;;5050036;28;20056;-78
2023/10/05 03:59:30;;;;;;;0.65;0.15;;;12.40;1.00;;;;;;5050365;28;20041;-77
2023/10/05 04:01:55;;;;;;;0.20;0.20;;;12.50;1.00;;;;;;5053072;28;20513;-77
2023/10/05 04:04:22;;;;;;;0.00;0.00;;;12.50;1.00;;;;;;5051643;28;20041;-78
2023/10/05 04:06:51;;;;;;;0.73;0.73;;;12.50;1.00;;;;;;5052971;28;20049;-77
2023/10/05 04:09:19;;;;;;;0.45;0.45;;;12.60;1.00;;;;;;5052624;28;20044;-77
2023/10/05 04:11:45;;;;;;;0.15;0.08;;;12.60;1.00;;;;;;5053890;28;20405;-77
2023/10/05 04:14:12;;;;;;;0.40;0.32;;;12.70;99.90;;;;;;5053832;28;20098;-77
2023/10/05 04:16:38;;;;;;;0.20;0.20;;;12.70;99.90;;;;;;5057200;28;20094;-76
2023/10/05 04:19:04;;;;;;;0.00;0.00;;;12.70;99.90;;;;;;5057241;28;20041;-77
2023/10/05 04:21:32;;;;;;;0.20;0.20;;;12.70;99.90;;;;;;5056973;28;20081;-77
2023/10/05 04:23:59;;;;;;;0.30;0.25;;;12.90;99.90;;;;;;5055978;28;20601;-77
2023/10/05 04:26:38;;;;;;;0.00;0.00;;;13.00;99.90;;;;;;5056204;28;20107;-77
2023/10/05 04:29:04;;;;;;;0.30;0.28;;;12.80;99.90;;;;;;5052726;28;20091;-77
2023/10/05 04:31:32;;;;;;;0.00;0.00;;;12.70;99.90;;;;;;5055619;28;20041;-77
2023/10/05 04:33:59;;;;;;;1.42;1.35;;;12.60;99.90;;;;;;5056873;28;20045;-77
2023/10/05 04:36:25;;;;;;;0.00;0.00;;;12.50;99.90;;;;;;5053853;28;20052;-76
2023/10/05 04:38:54;;;;;;;0.00;0.00;;;12.40;99.90;;;;;;5056940;28;20543;-76
2023/10/05 04:41:31;;;;;;;2.90;0.50;;;12.30;99.90;;;;;;5056631;28;20045;-77
2023/10/05 04:43:57;;;;;;;0.15;0.15;;;12.20;1.00;;;;;;5057386;28;20037;-77
2023/10/05 04:46:24;;;;;;;0.08;0.08;;;12.10;1.00;;;;;;5056750;28;20041;-78
2023/10/05 04:48:56;;;;;;;1.55;0.80;;;12.00;1.00;;;;;;5056986;28;20069;-78
2023/10/05 04:51:23;;;;;;;0.15;0.10;;;12.00;1.00;;;;;;5056359;28;20048;-78
2023/10/05 04:53:53;;;;;;;0.30;0.30;;;12.00;6.90;;;;;;5063573;28;20229;-77
2023/10/05 04:56:43;;;;;;;0.52;0.20;;;12.00;61.20;;;;;;5044493;28;20041;-77
2023/10/05 05:07:13;;;;;;;0.28;0.25;;;12.20;99.90;;;;;;5022473;28;20045;-77
2023/10/05 05:09:42;;;;;;;0.00;0.00;;;12.30;99.90;;;;;;5053331;28;20130;-77
2023/10/05 05:12:20;;;;;;;0.08;0.08;;;12.40;99.90;;;;;;5052995;28;20122;-77
2023/10/05 05:14:49;;;;;;;0.00;0.00;;;12.50;99.60;;;;;;5053464;28;20052;-77
2023/10/05 05:17:18;;;;;;;0.52;0.20;;;12.60;1.00;;;;;;5050991;28;20494;-77
2023/10/05 05:19:45;;;;;;;0.25;0.25;;;12.60;1.00;;;;;;5052762;28;20057;-77
2023/10/05 05:22:13;;;;;;;0.52;0.35;;;12.70;1.00;;;;;;5053530;28;20036;-77
2023/10/05 05:24:41;;;;;;;0.20;0.10;;;13.10;1.00;;;;;;5052080;28;20149;-77
2023/10/05 05:29:41;;;;;;;1.77;0.47;;;12.70;99.90;;;;;;5053006;28;20049;-77
2023/10/05 05:32:10;;;;;;;0.10;0.10;;;12.80;99.90;;;;;;5053148;28;20064;-77
2023/10/05 05:34:36;;;;;;;0.00;0.00;;;12.70;99.90;;;;;;5046166;28;20045;-77
2023/10/05 05:37:02;;;;;;;0.70;0.52;;;12.70;99.90;;;;;;5052701;28;20060;-77
2023/10/05 05:39:31;;;;;;;0.40;0.22;;;12.70;99.90;;;;;;5053185;28;20033;-77
2023/10/05 05:41:59;;;;;;;0.00;0.00;;;12.60;99.90;;;;;;5052675;28;20505;-77
2023/10/05 05:44:26;;;;;;;0.10;0.10;;;12.60;99.90;;;;;;5050074;28;20037;-77
2023/10/05 05:46:55;;;;;;;0.38;0.30;;;12.60;99.90;;;;;;5052651;28;20047;-77
2023/10/05 05:49:21;;;;;;;0.47;0.43;;;12.60;99.90;;;;;;5049526;28;20123;-77
2023/10/05 05:51:47;;;;;;;2.63;0.80;;;12.70;99.90;;;;;;5052652;28;20061;-77
2023/10/05 05:54:13;;;;;;;0.80;0.70;;;12.80;99.90;;;;;;5050632;28;20037;-77
2023/10/05 05:56:42;;;;;;;0.00;0.00;;;12.70;99.90;;;;;;5046525;28;20061;-77
2023/10/05 05:59:08;;;;;;;4.47;1.65;;;12.80;99.90;;;;;;5051897;28;20048;-77
2023/10/05 06:01:37;;;;;;;1.15;0.63;;;12.90;99.90;;;;;;5050663;28;20546;-77
2023/10/05 06:04:03;;;;;;;24.15;1.13;;;13.00;99.90;;;;;;5052438;28;20036;-77
2023/10/05 06:06:29;;;;;;;0.30;0.30;;;13.00;99.90;;;;;;5051722;28;20084;-77
2023/10/05 06:08:56;;;;;;;0.88;0.43;;;13.20;99.90;;;;;;5052113;28;20086;-77
2023/10/05 06:11:22;;;;;;;1.40;0.73;;;13.00;99.90;;;;;;5052130;28;20048;-76
2023/10/05 06:13:49;;;;;;;0.10;0.10;;;13.00;99.90;;;;;;5052642;28;20044;-77
2023/10/05 06:16:15;;;;;;;0.00;0.00;;;13.10;99.90;;;;;;5051668;28;20053;-77
2023/10/05 06:18:41;;;;;;;0.20;0.20;;;13.20;65.50;;;;;;5052352;28;20467;-77
2023/10/05 06:21:07;;;;;;;0.20;0.00;;;13.30;77.40;;;;;;5050844;28;20075;-77
2023/10/05 06:23:34;;;;;;;0.00;0.00;;;13.40;1.00;;;;;;5052200;28;20065;-77
2023/10/05 06:26:00;;;;;;;0.20;0.20;;;13.50;1.00;;;;;;5051065;28;20052;-77
2023/10/05 06:28:27;;;;;;;3.35;0.52;;;13.60;1.00;;;;;;5051652;28;20043;-76
2023/10/05 06:30:53;;;;;;;0.65;0.30;;;13.70;99.90;;;;;;5051974;28;20041;-77
2023/10/05 06:33:22;;;;;;;2.85;1.13;;;13.80;99.90;;;;;;5047783;28;20041;-76
2023/10/05 06:35:48;;;;;;;7.10;1.80;;;13.80;99.90;;;;;;5031128;28;20055;-76
2023/10/05 06:38:15;;;;;;;0.30;0.22;;;14.00;99.90;;;;;;5028531;28;20041;-77
2023/10/05 06:40:41;;;;;;;0.10;0.10;;;14.10;99.90;;;;;;5028463;28;20486;-78
2023/10/05 06:43:07;;;;;;;0.52;0.47;;;14.10;99.90;;;;;;5029429;28;20207;-77
2023/10/05 06:45:35;;;;;;;0.00;0.00;;;14.20;99.90;;;;;;5047124;28;20118;-77
2023/10/05 06:48:02;;;;;;;0.00;0.00;;;15.00;99.90;;;;;;5049200;28;20051;-77
2023/10/05 06:50:28;;;;;;;0.00;0.00;;;14.30;99.90;;;;;;5044113;28;20059;-76
2023/10/05 06:52:53;;;;;;;0.03;0.03;;;14.40;99.90;;;;;;5028830;28;20040;-76
2023/10/05 06:55:21;;;;;;;3.72;1.38;;;14.40;99.90;;;;;;5027946;28;20524;-76
2023/10/05 06:57:50;;;;;;;0.68;0.50;;;14.40;99.90;;;;;;5028163;28;20051;-76
2023/10/05 07:00:20;;;;;;;1.10;0.90;;;14.60;99.90;;;;;;5028468;28;20044;-76
2023/10/05 07:02:50;;;;;;;0.38;0.38;;;14.40;99.90;;;;;;5020400;28;20047;-76
2023/10/05 07:05:17;;;;;;;1.90;1.38;;;14.40;99.90;;;;;;5027867;28;20091;-76
2023/10/05 07:07:43;;;;;;;0.00;0.00;;;14.40;99.90;;;;;;5027760;28;20095;-77
2023/10/05 07:10:14;;;;;;;0.00;0.00;;;14.60;99.90;;;;;;5028201;28;20041;-76
2023/10/05 07:12:46;;;;;;;0.57;0.35;;;14.70;99.90;;;;;;5026353;28;20347;-76
2023/10/05 07:15:19;;;;;;;0.20;0.15;;;14.80;99.90;;;;;;5028730;28;20134;-77
2023/10/05 07:17:45;;;;;;;0.38;0.30;;;14.90;30.80;;;;;;5028904;28;20060;-77
2023/10/05 07:20:11;;;;;;;0.63;0.47;;;15.10;1.00;;;;;;5028828;28;20052;-76
2023/10/05 07:22:40;;;;;;;1.52;0.50;;;15.20;99.90;;;;;;5028552;28;20138;-76
2023/10/05 07:25:08;;;;;;;1.90;0.95;;;15.20;99.90;;;;;;5020098;28;20127;-76
2023/10/05 07:27:34;;;;;;;0.03;0.03;;;15.30;99.90;;;;;;5028478;28;20470;-76
2023/10/05 07:30:03;;;;;;;0.65;0.13;;;15.40;99.90;;;;;;5027718;28;20522;-76
2023/10/05 07:32:30;;;;;;;2.17;1.77;;;15.40;99.90;;;;;;5027781;28;20041;-76
2023/10/05 07:34:55;;;;;;;0.00;0.00;;;15.50;99.90;;;;;;5027286;28;20568;-77
2023/10/05 07:37:21;;;;;;;2.20;1.35;;;15.50;99.90;;;;;;5028661;28;20037;-76
2023/10/05 07:39:47;;;;;;;0.00;0.00;;;15.50;98.60;;;;;;5028909;28;20124;-76
2023/10/05 07:42:12;;;;;;;0.95;0.77;;;15.50;99.90;;;;;;5029193;28;20049;-76
2023/10/05 07:44:39;;;;;;;1.45;0.47;;;15.60;8.60;;;;;;5029059;28;20053;-76
2023/10/05 07:47:05;;;;;;;1.23;0.63;;;15.60;18.30;;;;;;5029151;28;20553;-76
2023/10/05 07:49:34;;;;;;;0.35;0.35;;;15.70;1.00;;;;;;5031903;28;20048;-76
2023/10/05 07:52:01;;;;;;;0.05;0.05;;;15.70;1.30;;;;;;5040552;28;20391;-76
2023/10/05 07:54:27;;;;;;;5.32;1.63;;;15.60;99.90;;;;;;5032630;28;20049;-77
2023/10/05 07:56:53;;;;;;;0.40;0.40;;;15.30;99.90;;;;;;5033691;28;20045;-76
2023/10/05 07:59:21;;;;;;;0.20;0.20;;;15.20;99.90;;;;;;5033016;28;20150;-77
2023/10/05 08:01:49;;;;;;;0.40;0.38;;;15.20;1.00;;;;;;5040220;28;20078;-76
2023/10/05 08:04:15;;;;;;;2.38;1.42;;;15.10;99.90;;;;;;5049375;28;20060;-76
2023/10/05 08:06:44;;;;;;;0.25;0.17;;;15.00;99.90;;;;;;5030224;28;20052;-76
2023/10/05 08:09:14;;;;;;;0.32;0.32;;;14.90;99.90;;;;;;5032213;28;20507;-77
2023/10/05 08:11:41;;;;;;;0.13;0.13;;;14.80;99.90;;;;;;5032809;28;20052;-77
2023/10/05 08:14:07;;;;;;;0.00;0.00;;;15.50;1.00;;;;;;5032828;28;20032;-78
2023/10/05 08:16:34;;;;;;;0.50;0.50;;;14.60;1.00;;;;;;5032279;28;20037;-78
2023/10/05 08:19:00;;;;;;;0.88;0.68;;;14.70;72.90;;;;;;5033131;28;20075;-78
2023/10/05 08:21:27;;;;;;;0.30;0.30;;;14.70;99.90;;;;;;5035880;28;20056;-79
2023/10/05 08:23:52;;;;;;;0.88;0.17;;;14.70;99.90;;;;;;5040496;28;20057;-80
2023/10/05 08:26:18;;;;;;;1.30;1.02;;;14.70;99.90;;;;;;5042871;28;20048;-80
2023/10/05 08:28:49;;;;;;;0.80;0.70;;;14.90;99.90;;;;;;5041795;28;20052;-81
2023/10/05 08:31:16;;;;;;;0.20;0.20;;;15.00;99.90;;;;;;5033265;28;20045;-79
2023/10/05 08:33:41;;;;;;;0.20;0.20;;;15.00;99.90;;;;;;5040709;28;20130;-80
2023/10/05 08:36:14;;;;;;;0.70;0.70;;;15.00;1.00;;;;;;5054670;28;20104;-79
2023/10/05 08:38:40;;;;;;;3.08;1.20;;;15.10;1.00;;;;;;5059987;28;20072;-81
2023/10/05 08:41:11;;;;;;;0.85;0.47;;;15.30;1.00;;;;;;5056724;28;20110;-80
2023/10/05 08:43:41;;;;;;;2.85;0.40;;;15.20;99.90;;;;;;5057234;28;20049;-81
2023/10/05 08:46:10;;;;;;;0.63;0.55;;;15.10;99.90;;;;;;5057164;28;20041;-80
2023/10/05 08:48:37;;;;;;;0.00;0.00;;;15.00;99.90;;;;;;5058682;28;20089;-80
2023/10/05 08:51:10;;;;;;;0.98;0.45;;;15.10;99.90;;;;;;5058217;28;20068;-80
2023/10/05 08:53:41;;;;;;;0.22;0.20;;;15.00;99.90;;;;;;5048566;28;20041;-80
2023/10/05 08:56:12;;;;;;;0.70;0.63;;;15.00;1.00;;;;;;5056171;28;20061;-79
2023/10/05 08:58:41;;;;;;;2.00;0.85;;;15.00;16.40;;;;;;5057004;28;20052;-79
2023/10/05 09:01:35;;;;;;;4.03;0.90;;;15.20;7.00;;;;;;5055910;28;20075;-80
2023/10/05 09:04:23;;;;;;;0.15;0.15;;;15.30;55.30;;;;;;5051088;28;20036;-79
2023/10/05 09:06:55;;;;;;;3.50;1.65;;;15.80;1.00;;;;;;5054726;28;20048;-79
2023/10/05 09:09:37;;;;;;;0.10;0.10;;;15.50;1.00;;;;;;5056601;28;20067;-80
2023/10/05 09:12:34;;;;;;;0.10;0.10;;;15.80;1.00;;;;;;5047771;28;20130;-80
2023/10/05 09:15:05;;;;;;;0.47;0.47;;;15.90;99.90;;;;;;5028226;28;20169;-79
2023/10/05 09:17:34;;;;;;;0.15;0.15;;;16.00;99.90;;;;;;5038810;28;20049;-80
2023/10/05 09:20:21;;;;;;;1.10;0.38;;;16.10;99.90;;;;;;5053530;28;20049;-80
2023/10/05 09:22:51;;;;;;;0.00;0.00;;;16.40;99.90;;;;;;5056924;28;20048;-79
2023/10/05 09:25:26;;;;;;;4.20;0.77;;;16.90;99.90;;;;;;5058054;28;20112;-80
2023/10/05 09:27:52;;;;;;;1.00;0.82;;;16.60;1.00;;;;;;5056534;28;20104;-80
2023/10/05 09:30:21;;;;;;;0.20;0.20;;;16.50;99.90;;;;;;5057554;28;20083;-81
2023/10/05 09:32:48;;;;;;;0.70;0.70;;;16.50;99.90;;;;;;5057981;28;20089;-80
2023/10/05 09:35:31;;;;;;;0.20;0.20;;;16.50;99.90;;;;;;5056645;28;20037;-79
2023/10/05 09:37:58;;;;;;;0.00;0.00;;;16.50;99.90;;;;;;5046083;28;20049;-79
2023/10/05 09:40:26;;;;;;;2.55;1.40;;;16.40;99.90;;;;;;5040547;28;20049;-79
2023/10/05 09:42:55;;;;;;;0.70;0.70;;;16.30;99.90;;;;;;5040414;28;20044;-79
2023/10/05 09:45:23;;;;;;;0.00;0.00;;;16.10;99.90;;;;;;5056090;28;20133;-80
2023/10/05 09:47:51;;;;;;;0.80;0.45;;;16.10;99.90;;;;;;5057656;28;20057;-80
2023/10/05 09:50:21;;;;;;;0.75;0.30;;;16.20;99.90;;;;;;5057424;28;20056;-80
2023/10/05 09:52:48;;;;;;;0.28;0.20;;;16.20;99.90;;;;;;5052890;28;20554;-81
2023/10/05 09:55:18;;;;;;;0.28;0.20;;;16.20;1.00;;;;;;5056561;28;20057;-80
2023/10/05 09:57:51;;;;;;;0.32;0.32;;;16.40;99.90;;;;;;5056835;28;20084;-79
2023/10/05 10:00:30;;;;;;;2.05;0.70;;;16.60;99.90;;;;;;5039508;28;20502;-79
2023/10/05 10:02:58;;;;;;;0.25;0.22;;;16.70;99.90;;;;;;5039762;28;20048;-80
2023/10/05 10:05:29;;;;;;;0.70;0.40;;;16.90;99.90;;;;;;5045453;28;20041;-80
2023/10/05 10:07:59;;;;;;;0.00;0.00;;;17.10;99.90;;;;;;5057331;28;20457;-80
2023/10/05 10:10:29;;;;;;;0.38;0.38;;;17.20;1.00;;;;;;5057280;28;20056;-80
2023/10/05 10:12:56;;;;;;;0.10;0.10;;;17.40;99.90;;;;;;5046323;28;20116;-81
2023/10/05 10:15:33;;;;;;;0.32;0.32;;;17.40;1.00;;;;;;5056357;28;20406;-81
2023/10/05 10:18:14;;;;;;;0.17;0.17;;;17.50;49.60;;;;;;5049108;28;20088;-81
2023/10/05 10:20:48;;;;;;;0.15;0.15;;;17.60;99.90;;;;;;5054877;28;20048;-81
2023/10/05 10:23:19;;;;;;;0.25;0.25;;;17.60;99.90;;;;;;5057127;28;20048;-81
2023/10/05 10:25:46;;;;;;;0.10;0.10;;;17.90;99.90;;;;;;5057772;28;20090;-80
2023/10/05 10:28:17;;;;;;;0.17;0.17;;;18.20;99.90;;;;;;5058295;28;20044;-80
2023/10/05 10:30:47;;;;;;;0.00;0.00;;;17.90;99.90;;;;;;5051700;28;20132;-80
2023/10/05 10:33:35;;;;;;;2.13;0.55;;;18.10;99.90;;;;;;5033158;28;20040;-80
2023/10/05 10:36:04;;;;;;;0.28;0.28;;;18.20;1.00;;;;;;5039990;28;20075;-80
2023/10/05 10:38:30;;;;;;;6.50;0.45;;;18.30;1.00;;;;;;5038968;28;20097;-80
2023/10/05 10:41:09;;;;;;;0.38;0.32;;;17.90;1.00;;;;;;5047804;28;20044;-79
2023/10/05 10:43:37;;;;;;;0.25;0.25;;;17.40;99.90;;;;;;5051296;28;20044;-79
2023/10/05 10:46:14;;;;;;;0.13;0.13;;;17.20;1.00;;;;;;5057710;28;20098;-80
2023/10/05 10:48:53;;;;;;;7.88;1.85;;;17.10;73.60;;;;;;5038750;28;20048;-79
2023/10/05 10:51:21;;;;;;;0.05;0.05;;;16.70;5.90;;;;;;5038786;28;20045;-79
2023/10/05 10:53:51;;;;;;;1.23;1.10;;;16.80;99.90;;;;;;5040678;28;20048;-79
2023/10/05 10:56:27;;;;;;;0.00;0.00;;;16.60;99.90;;;;;;5056577;28;20159;-79
2023/10/05 10:59:08;;;;;;;0.70;0.47;;;16.70;1.00;;;;;;5055992;28;20418;-79
2023/10/05 11:01:43;;;;;;;0.15;0.15;;;16.80;99.90;;;;;;5056570;28;20041;-80
2023/10/05 11:04:26;;;;;;;0.55;0.43;;;17.10;1.00;;;;;;5058712;28;20037;-79
2023/10/05 11:07:05;;;;;;;0.57;0.50;;;17.60;1.00;;;;;;5056644;28;20064;-79
2023/10/05 11:09:36;;;;;;;0.03;0.03;;;18.20;1.00;;;;;;5056288;28;20276;-79
2023/10/05 11:12:13;;;;;;;0.00;0.00;;;18.10;99.90;;;;;;5053868;28;20079;-78
2023/10/05 11:14:42;;;;;;;0.10;0.10;;;18.30;45.50;;;;;;5054924;28;20502;-78
2023/10/05 11:17:28;;;;;;;0.10;0.10;;;18.30;99.90;;;;;;5053520;28;20079;-78
2023/10/05 11:19:54;;;;;;;;;;;18.40;99.90;;;;;;5054468;28;20064;-78
2023/10/05 11:22:24;;;;;;;2.25;0.98;;;18.60;1.00;;;;;;5054698;28;20382;-78
2023/10/05 11:25:00;;;;;;;1.38;1.27;;;18.80;99.90;;;;;;5058481;28;20040;-78
2023/10/05 11:27:26;;;;;;;7.78;0.35;;;19.10;1.00;;;;;;5059277;28;20041;-78
2023/10/05 11:29:55;;;;;;;1.13;0.82;;;19.40;99.90;;;;;;5059175;28;20044;-79
2023/10/05 11:32:25;;;;;;;0.35;0.35;;;19.40;99.90;;;;;;5057792;28;20033;-78
2023/10/05 11:34:55;;;;;;;0.17;0.17;;;19.40;99.90;;;;;;5057678;28;20116;-78
2023/10/05 11:37:23;;;;;;;0.40;0.20;;;19.50;99.90;;;;;;5058108;28;20076;-78
2023/10/05 11:39:49;;;;;;;3.50;1.17;;;19.30;79.40;;;;;;5058272;28;20049;-78
2023/10/05 11:42:23;;;;;;;0.00;0.00;;;19.40;99.90;;;;;;5057834;28;20394;-78
2023/10/05 11:44:51;;;;;;;0.25;0.25;;;19.60;36.40;;;;;;5089371;28;20056;-78
2023/10/05 11:47:35;;;;;;;0.20;0.20;;;19.40;42.50;;;;;;5056329;28;20179;-77
2023/10/05 11:50:08;;;;;;;0.82;0.80;;;19.20;1.00;;;;;;5056668;28;20463;-77
2023/10/05 11:52:38;;;;;;;1.20;0.30;;;18.90;24.80;;;;;;5048236;28;20052;-77
2023/10/05 11:55:08;;;;;;;5.57;1.00;;;18.90;24.40;;;;;;5055938;28;20060;-77
2023/10/05 11:57:33;;;;;;;1.10;0.90;;;18.80;13.80;;;;;;5056456;28;20041;-77
2023/10/05 11:59:59;;;;;;;1.67;1.33;;;19.00;24.90;;;;;;5056500;28;20158;-77
2023/10/05 12:02:26;;;;;;;0.52;0.30;;;19.40;26.30;;;;;;5055849;28;20049;-77
2023/10/05 12:04:52;;;;;;;5.55;1.20;;;19.90;76.70;;;;;;5056133;28;20044;-77
2023/10/05 12:07:17;;;;;;;0.75;0.30;;;20.30;67.60;;;;;;5055882;28;20041;-77
2023/10/05 12:09:43;;;;;;;2.08;0.40;;;20.60;1.00;;;;;;5055832;28;20044;-77
2023/10/05 12:12:13;;;;;;;0.65;0.65;;;20.60;1.00;;;;;;5055758;28;20041;-77
2023/10/05 12:14:41;;;;;;;0.25;0.20;;;20.40;1.00;;;;;;5055466;28;20509;-77
2023/10/05 12:17:07;;;;;;;1.20;0.43;;;20.30;1.00;;;;;;5055763;28;20045;-77
2023/10/05 12:19:37;;;;;;;0.20;0.20;;;20.20;1.00;;;;;;5055848;28;20033;-77
2023/10/05 12:22:03;;;;;;;3.15;1.10;;;19.80;1.00;;;;;;5048386;28;20044;-77
2023/10/05 12:24:30;;;;;;;0.00;0.00;;;19.10;1.00;;;;;;5055474;28;20117;-77
2023/10/05 12:26:59;;;;;;;0.00;0.00;;;18.60;1.00;;;;;;5055592;28;20115;-77
2023/10/05 12:29:29;;;;;;;0.05;0.05;;;18.00;92.40;;;;;;5057261;28;20033;-77
2023/10/05 12:32:03;;;;;;;5.00;1.45;;;17.40;99.90;;;;;;5053868;28;20071;-77
2023/10/05 12:34:29;;;;;;;0.00;0.00;;;16.50;99.90;;;;;;5087007;28;20052;-77
2023/10/05 12:36:55;;;;;;;0.22;0.20;;;16.00;99.90;;;;;;5056304;28;20045;-77
2023/10/05 12:39:26;;;;;;;0.10;0.10;;;15.80;99.90;;;;;;5056023;28;20052;-77
2023/10/05 12:41:53;;;;;;;0.10;0.10;;;15.70;99.90;;;;;;5055928;28;20053;-78
2023/10/05 12:44:18;;;;;;;0.08;0.08;;;15.60;97.30;;;;;;5055308;28;20049;-78
2023/10/05 12:46:46;;;;;;;0.03;0.03;;;15.70;98.00;;;;;;5055238;28;20045;-77
2023/10/05 12:49:14;;;;;;;0.05;0.05;;;15.70;99.90;;;;;;5054839;28;20512;-77
2023/10/05 12:51:41;;;;;;;0.00;0.00;;;15.60;99.90;;;;;;5055152;28;20434;-77
2023/10/05 12:54:28;;;;;;;0.00;0.00;;;15.60;99.90;;;;;;5055938;28;20037;-77
2023/10/05 12:56:54;;;;;;;0.90;0.57;;;15.70;69.70;;;;;;5050994;28;20068;-77
2023/10/05 12:59:20;;;;;;;0.30;0.28;;;15.80;99.90;;;;;;5056911;28;20052;-78
2023/10/05 13:01:46;;;;;;;2.45;0.73;;;16.10;58.10;;;;;;5056045;28;20047;-78
2023/10/05 13:04:13;;;;;;;0.73;0.60;;;16.40;1.00;;;;;;5057266;28;20410;-77
2023/10/05 13:06:40;;;;;;;5.57;1.48;;;16.60;99.90;;;;;;5056591;28;20041;-78
2023/10/05 13:09:11;;;;;;;0.20;0.10;;;16.70;99.90;;;;;;5056298;28;20048;-78
2023/10/05 13:11:39;;;;;;;0.75;0.22;;;16.60;99.90;;;;;;5055939;28;20037;-77
2023/10/05 13:14:08;;;;;;;0.00;0.00;;;16.70;99.90;;;;;;5055377;28;20050;-77
2023/10/05 13:16:38;;;;;;;0.70;0.70;;;16.80;99.90;;;;;;5054973;28;20055;-78
2023/10/05 13:19:08;;;;;;;0.00;0.00;;;16.90;99.90;;;;;;5054485;28;20478;-78
2023/10/05 13:21:35;;;;;;;0.80;0.63;;;17.00;99.90;;;;;;5055622;28;20040;-77